createdAt,value
2023-04-23T00:04:40.184Z,57.84
2023-04-23T00:09:44.989Z,57.71
2023-04-23T00:14:47.424Z,57.61
2023-04-23T00:19:49.613Z,57.78
2023-04-23T00:24:51.950Z,57.70
2023-04-23T00:29:54.180Z,57.37
2023-04-23T00:34:56.982Z,57.39
2023-04-23T00:39:59.354Z,57.53
2023-04-23T00:45:02.508Z,58.47
2023-04-23T00:50:05.171Z,59.17
2023-04-23T00:55:08.981Z,58.29
2023-04-23T01:00:14.343Z,58.00
2023-04-23T01:05:18.534Z,57.80
2023-04-23T01:10:21.862Z,58.21
2023-04-23T01:15:24.572Z,58.91
2023-04-23T01:20:27.008Z,59.16
2023-04-23T01:25:29.877Z,59.23
2023-04-23T01:30:32.294Z,58.82
2023-04-23T01:35:36.719Z,58.90
2023-04-23T01:40:39.154Z,58.98
2023-04-23T01:45:42.245Z,58.39
2023-04-23T01:50:44.487Z,57.84
2023-04-23T01:55:48.384Z,57.68
2023-04-23T02:00:51.196Z,57.43
2023-04-23T02:05:55.680Z,57.68
2023-04-23T02:10:57.958Z,58.32
2023-04-23T02:16:00.655Z,57.99
2023-04-23T02:21:04.972Z,58.00
2023-04-23T02:26:08.270Z,57.48
2023-04-23T02:31:10.719Z,58.16
2023-04-23T02:36:13.116Z,59.58
2023-04-23T02:41:15.496Z,59.58
2023-04-23T02:46:17.701Z,58.42
2023-04-23T02:51:19.855Z,57.68
2023-04-23T02:56:21.997Z,58.09
2023-04-23T03:01:24.251Z,58.17
2023-04-23T03:06:27.067Z,57.97
2023-04-23T03:11:29.247Z,57.57
2023-04-23T03:16:32.498Z,57.59
2023-04-23T03:21:34.847Z,57.47
2023-04-23T03:26:37.099Z,58.80
2023-04-23T03:31:39.444Z,58.54
2023-04-23T03:36:41.717Z,58.32
2023-04-23T03:41:43.958Z,58.66
2023-04-23T03:46:46.146Z,58.97
2023-04-23T03:51:48.380Z,58.72
2023-04-23T03:56:50.647Z,58.16
2023-04-23T04:01:52.919Z,58.83
2023-04-23T04:06:55.170Z,58.87
2023-04-23T04:11:57.365Z,58.06
2023-04-23T04:16:59.669Z,58.35
2023-04-23T04:22:04.063Z,58.45
2023-04-23T04:27:06.433Z,58.53
2023-04-23T04:32:10.002Z,59.21
2023-04-23T04:37:12.157Z,59.66
2023-04-23T04:42:14.752Z,59.86
2023-04-23T04:47:17.277Z,60.01
2023-04-23T04:52:20.373Z,59.89
2023-04-23T04:57:23.323Z,59.74
2023-04-23T05:02:27.021Z,58.99
2023-04-23T05:07:29.352Z,59.80
2023-04-23T05:12:31.731Z,59.75
2023-04-23T05:17:33.913Z,59.77
2023-04-23T05:22:36.146Z,59.84
2023-04-23T05:27:38.934Z,59.55
2023-04-23T05:32:41.429Z,59.74
2023-04-23T05:37:43.626Z,59.38
2023-04-23T05:42:45.924Z,59.53
2023-04-23T05:47:48.122Z,59.24
2023-04-23T05:52:50.449Z,59.65
2023-04-23T05:57:52.703Z,59.64
2023-04-23T06:02:54.990Z,59.64
2023-04-23T06:07:57.257Z,59.41
2023-04-23T06:12:59.573Z,60.45
2023-04-23T06:18:01.954Z,59.98
2023-04-23T06:23:04.229Z,59.47
2023-04-23T06:28:06.848Z,59.41
2023-04-23T06:33:09.606Z,58.95
2023-04-23T06:38:11.833Z,58.29
2023-04-23T06:43:15.151Z,58.03
2023-04-23T06:48:18.893Z,58.21
2023-04-23T06:53:22.518Z,58.02
2023-04-23T06:58:31.407Z,58.12
2023-04-23T07:03:33.994Z,58.51
2023-04-23T07:08:36.321Z,57.39
2023-04-23T07:13:39.323Z,58.03
2023-04-23T07:18:41.689Z,58.02
2023-04-23T07:23:43.926Z,57.74
2023-04-23T07:28:47.836Z,57.63
2023-04-23T07:33:50.166Z,56.95
2023-04-23T07:38:52.480Z,56.44
2023-04-23T07:43:54.873Z,55.44
2023-04-23T07:48:57.155Z,55.43
2023-04-23T07:53:59.392Z,55.47
2023-04-23T07:59:01.760Z,55.22
2023-04-23T08:04:04.236Z,54.16
2023-04-23T08:09:06.873Z,53.35
2023-04-23T08:14:09.215Z,52.53
2023-04-23T08:19:12.240Z,52.00
2023-04-23T08:24:14.475Z,52.04
2023-04-23T08:29:16.846Z,52.26
2023-04-23T08:34:19.012Z,51.03
2023-04-23T08:39:21.277Z,51.25
2023-04-23T08:44:26.362Z,50.84
2023-04-23T08:49:33.864Z,50.26
2023-04-23T08:54:41.649Z,49.35
2023-04-23T08:59:44.713Z,48.60
2023-04-23T09:04:49.565Z,49.54
2023-04-23T09:09:53.498Z,48.66
2023-04-23T09:14:56.258Z,48.38
2023-04-23T09:19:59.558Z,47.44
2023-04-23T09:25:02.628Z,46.45
2023-04-23T09:30:08.627Z,47.04
2023-04-23T09:35:14.254Z,46.76
2023-04-23T09:40:20.429Z,45.75
2023-04-23T09:45:23.194Z,45.40
2023-04-23T09:50:39.756Z,44.74
2023-04-23T09:55:44.069Z,44.78
2023-04-23T10:00:46.489Z,44.33
2023-04-23T10:06:00.288Z,43.62
2023-04-23T10:11:17.785Z,43.01
2023-04-23T10:16:26.819Z,42.25
2023-04-23T10:21:42.935Z,42.49
2023-04-23T10:26:58.410Z,43.72
2023-04-23T10:32:03.210Z,42.36
2023-04-23T10:37:06.629Z,42.12
2023-04-23T10:42:08.994Z,40.63
2023-04-23T10:47:17.149Z,40.17
2023-04-23T10:52:22.249Z,41.01
2023-04-23T10:57:25.925Z,40.71
2023-04-23T11:02:45.393Z,40.74
2023-04-23T11:13:24.634Z,39.80
2023-04-23T11:18:28.164Z,38.64
2023-04-23T11:23:34.511Z,37.07
2023-04-23T11:28:39.646Z,37.38
2023-04-23T11:33:41.842Z,36.10
2023-04-23T11:38:44.062Z,35.94
2023-04-23T11:43:47.237Z,36.57
2023-04-23T11:48:49.702Z,36.33
2023-04-23T11:53:51.864Z,35.23
2023-04-23T11:59:04.151Z,34.99
2023-04-23T12:04:17.389Z,33.34
2023-04-23T12:09:22.871Z,34.06
2023-04-23T12:14:30.670Z,33.07
2023-04-23T12:19:33.140Z,33.35
2023-04-23T12:24:51.781Z,34.16
2023-04-23T12:30:04.113Z,34.35
2023-04-23T12:35:10.294Z,33.76
2023-04-23T12:40:12.548Z,33.05
2023-04-23T12:45:14.703Z,32.96
2023-04-23T12:50:17.002Z,32.26
2023-04-23T12:55:19.298Z,32.56
2023-04-23T13:00:21.642Z,32.44
2023-04-23T13:05:24.544Z,32.69
2023-04-23T13:10:26.875Z,31.65
2023-04-23T13:15:29.216Z,31.87
2023-04-23T13:20:31.438Z,31.22
2023-04-23T13:25:33.680Z,30.98
2023-04-23T13:30:35.973Z,31.03
2023-04-23T13:35:38.310Z,31.16
2023-04-23T13:40:40.655Z,32.02
2023-04-23T13:45:43.019Z,31.78
2023-04-23T13:50:45.798Z,32.27
2023-04-23T13:55:48.019Z,33.05
2023-04-23T14:00:50.472Z,32.62
2023-04-23T14:05:52.690Z,32.26
2023-04-23T14:10:54.945Z,31.58
2023-04-23T14:15:57.193Z,31.31
2023-04-23T14:20:59.459Z,31.79
2023-04-23T14:26:09.588Z,31.87
2023-04-23T14:31:11.809Z,32.03
2023-04-23T14:36:14.325Z,32.34
2023-04-23T14:41:18.472Z,32.45
2023-04-23T14:46:20.722Z,31.30
2023-04-23T14:51:23.690Z,30.92
2023-04-23T14:56:26.015Z,31.39
2023-04-23T15:01:28.314Z,30.52
2023-04-23T15:06:30.612Z,29.60
2023-04-23T15:11:33.462Z,30.25
2023-04-23T15:16:47.713Z,28.71
2023-04-23T15:21:51.320Z,25.54
2023-04-23T15:26:55.091Z,26.05
2023-04-23T15:31:58.708Z,25.69
2023-04-23T15:37:01.115Z,23.46
2023-04-23T15:42:03.742Z,22.64
2023-04-23T15:47:06.067Z,21.67
2023-04-23T15:52:08.438Z,21.05
2023-04-23T15:57:11.124Z,21.24
2023-04-23T16:02:20.007Z,21.35
2023-04-23T16:07:22.406Z,21.36
2023-04-23T16:12:24.860Z,21.19
2023-04-23T16:17:28.352Z,20.93
2023-04-23T16:22:30.788Z,21.96
2023-04-23T16:27:33.306Z,23.47
2023-04-23T16:32:36.331Z,25.56
2023-04-23T16:37:38.943Z,27.89
2023-04-23T16:42:41.414Z,29.79
2023-04-23T16:47:46.480Z,30.85
2023-04-23T16:52:48.698Z,32.23
2023-04-23T16:57:50.949Z,33.26
2023-04-23T17:02:53.337Z,34.45
2023-04-23T17:07:55.726Z,35.73
2023-04-23T17:12:57.948Z,36.68
2023-04-23T17:18:00.263Z,37.57
2023-04-23T17:23:03.159Z,38.59
2023-04-23T17:28:05.355Z,39.37
2023-04-23T17:33:07.633Z,39.98
2023-04-23T17:38:10.034Z,40.59
2023-04-23T17:43:12.640Z,41.04
2023-04-23T17:48:16.161Z,41.52
2023-04-23T17:53:18.862Z,41.87
2023-04-23T17:58:21.869Z,41.84
2023-04-23T18:03:24.284Z,42.12
2023-04-23T18:08:26.786Z,42.58
2023-04-23T18:13:29.143Z,42.81
2023-04-23T18:18:31.316Z,43.12
2023-04-23T18:23:36.236Z,43.82
2023-04-23T18:28:38.579Z,44.27
2023-04-23T18:33:52.634Z,44.17
2023-04-23T18:38:55.019Z,44.51
2023-04-23T18:44:00.162Z,44.53
2023-04-23T18:49:05.133Z,44.75
2023-04-23T18:54:07.637Z,44.76
2023-04-23T18:59:10.228Z,44.93
2023-04-23T19:04:12.759Z,45.30
2023-04-23T19:09:15.270Z,45.11
2023-04-23T19:14:19.414Z,45.16
2023-04-23T19:19:21.740Z,45.31
2023-04-23T19:24:23.995Z,45.13
2023-04-23T19:29:26.328Z,45.52
2023-04-23T19:34:28.588Z,45.67
2023-04-23T19:39:30.913Z,45.77
2023-04-23T19:44:33.500Z,45.94
2023-04-23T19:49:35.807Z,46.00
2023-04-23T19:54:38.798Z,46.11
2023-04-23T19:59:41.300Z,45.89
2023-04-23T20:04:46.056Z,45.98
2023-04-23T20:09:48.345Z,46.29
2023-04-23T20:14:50.898Z,46.16
2023-04-23T20:19:54.211Z,46.30
2023-04-23T20:24:56.919Z,46.41
2023-04-23T20:29:59.570Z,46.72
2023-04-23T20:35:02.640Z,46.79
2023-04-23T20:40:06.152Z,46.86
2023-04-23T20:45:09.014Z,47.25
2023-04-23T20:50:11.814Z,47.26
2023-04-23T20:55:14.084Z,47.88
2023-04-23T21:00:16.703Z,48.19
2023-04-23T21:05:18.945Z,48.50
2023-04-23T21:10:27.561Z,48.54
2023-04-23T21:15:31.967Z,49.41
2023-04-23T21:20:34.267Z,49.74
2023-04-23T21:25:36.524Z,49.90
2023-04-23T21:31:01.785Z,50.37
2023-04-23T21:36:04.836Z,50.42
2023-04-23T21:41:07.975Z,50.67
2023-04-23T21:46:11.484Z,51.14
2023-04-23T21:51:13.866Z,51.30
2023-04-23T21:56:16.905Z,51.57
2023-04-23T22:01:19.186Z,51.91
2023-04-23T22:06:21.680Z,52.05
2023-04-23T22:11:24.078Z,51.94
2023-04-23T22:16:28.759Z,52.50
2023-04-23T22:21:31.771Z,52.73
2023-04-23T22:26:36.434Z,52.76
2023-04-23T22:31:38.782Z,52.57
2023-04-23T22:36:43.579Z,52.36
2023-04-23T22:41:46.276Z,52.49
2023-04-23T22:46:49.202Z,52.33
2023-04-23T22:51:51.888Z,52.42
2023-04-23T22:56:54.393Z,52.10
2023-04-23T23:01:56.750Z,51.89
2023-04-23T23:06:59.102Z,51.80
2023-04-23T23:12:03.502Z,52.03
2023-04-23T23:17:08.409Z,51.69
2023-04-23T23:22:10.714Z,51.72
2023-04-23T23:27:12.938Z,51.79
2023-04-23T23:32:15.114Z,51.81
2023-04-23T23:37:17.809Z,51.68
2023-04-23T23:42:20.038Z,51.82
2023-04-23T23:47:22.411Z,51.87
2023-04-23T23:52:24.738Z,52.06
2023-04-23T23:57:26.958Z,52.32
